Time;durP1;ratioP1;P1;durP2;ratioP2;P2;SDS_P1;SDS_P2;PMS_P1;PMS_P2;Temp;Humidity;BMP_temperature;BMP_pressure;BME280_temperature;BME280_humidity;BME280_pressure;Samples;Min_cycle;Max_cycle;Signal;HPM_P1;HPM_P2
2022/11/09 00:00:43;;;;;;;7.53;2.58;;;13.70;99.90;;;;;;5097237;27;20038;-77
2022/11/09 00:03:09;;;;;;;7.43;3.17;;;13.70;99.90;;;;;;5102547;27;20051;-77
2022/11/09 00:05:35;;;;;;;7.13;2.65;;;13.70;99.90;;;;;;5109378;27;20131;-77
2022/11/09 00:08:04;;;;;;;9.93;3.50;;;13.70;99.90;;;;;;5125384;27;20118;-77
2022/11/09 00:10:31;;;;;;;6.72;2.42;;;13.70;99.90;;;;;;5127133;27;20123;-76
2022/11/09 00:12:57;;;;;;;5.97;2.38;;;13.70;99.90;;;;;;5118567;27;20058;-77
2022/11/09 00:15:23;;;;;;;8.13;2.30;;;13.70;99.90;;;;;;5140298;27;20039;-77
2022/11/09 00:17:49;;;;;;;8.73;3.17;;;13.50;99.90;;;;;;5099270;27;20041;-77
2022/11/09 00:20:14;;;;;;;5.63;2.42;;;13.60;99.90;;;;;;5111633;27;20645;-77
2022/11/09 00:22:40;;;;;;;5.80;2.35;;;13.60;99.90;;;;;;5134658;27;20044;-77
2022/11/09 00:25:07;;;;;;;7.50;2.50;;;13.60;99.90;;;;;;5121042;27;21230;-77
2022/11/09 00:27:33;;;;;;;7.43;2.90;;;13.60;99.90;;;;;;5139868;27;20130;-77
2022/11/09 00:30:02;;;;;;;8.63;2.80;;;13.50;99.90;;;;;;5085479;27;20130;-77
2022/11/09 00:32:27;;;;;;;6.88;2.90;;;13.50;99.90;;;;;;5133227;27;20052;-77
2022/11/09 00:34:53;;;;;;;8.40;2.65;;;13.40;99.90;;;;;;5124423;27;20562;-76
2022/11/09 00:37:19;;;;;;;6.30;2.58;;;13.40;99.90;;;;;;5093415;27;20064;-76
2022/11/09 00:39:44;;;;;;;6.05;2.65;;;13.30;99.90;;;;;;5105906;27;20046;-77
2022/11/09 00:42:10;;;;;;;6.78;2.55;;;13.30;99.90;;;;;;5121450;27;20058;-77
2022/11/09 00:44:36;;;;;;;8.38;3.08;;;13.20;99.90;;;;;;5088006;27;20048;-77
2022/11/09 00:47:02;;;;;;;6.53;2.58;;;13.20;99.90;;;;;;5104202;27;20127;-77
2022/11/09 00:49:27;;;;;;;6.50;2.97;;;13.20;99.90;;;;;;5112368;27;20302;-77
2022/11/09 00:51:53;;;;;;;6.93;2.83;;;13.20;99.90;;;;;;5106985;27;20069;-77
2022/11/09 00:54:19;;;;;;;6.85;2.35;;;13.20;99.90;;;;;;5124306;27;20055;-77
2022/11/09 00:56:44;;;;;;;6.43;2.30;;;13.10;99.90;;;;;;5089941;27;20035;-76
2022/11/09 00:59:10;;;;;;;9.80;2.70;;;13.20;99.90;;;;;;5116202;27;20401;-76
2022/11/09 01:01:36;;;;;;;6.57;2.90;;;13.20;99.90;;;;;;5088586;27;20047;-77
2022/11/09 01:04:03;;;;;;;8.38;2.90;;;13.20;99.90;;;;;;5115990;27;20039;-77
2022/11/09 01:06:31;;;;;;;8.90;3.15;;;13.20;99.90;;;;;;5094973;27;20046;-76
2022/11/09 01:08:57;;;;;;;8.38;3.42;;;13.20;99.90;;;;;;5122307;27;20786;-76
2022/11/09 01:11:24;;;;;;;8.05;2.83;;;13.20;99.90;;;;;;5095213;27;20055;-77
2022/11/09 01:13:50;;;;;;;7.15;2.47;;;13.20;99.90;;;;;;5116270;27;20078;-77
2022/11/09 01:16:19;;;;;;;9.02;2.97;;;13.20;99.90;;;;;;5091654;27;20058;-77
2022/11/09 01:18:45;;;;;;;7.32;2.45;;;13.20;99.90;;;;;;5121069;27;20047;-77
2022/11/09 01:21:14;;;;;;;7.53;2.97;;;13.20;99.90;;;;;;5128922;27;20118;-77
2022/11/09 01:23:44;;;;;;;7.20;2.90;;;13.10;99.90;;;;;;5115100;27;20067;-76
2022/11/09 01:26:12;;;;;;;7.70;2.90;;;13.10;99.90;;;;;;5105618;27;20131;-77
2022/11/09 01:28:38;;;;;;;9.48;2.70;;;13.10;99.90;;;;;;5125777;27;20039;-77
2022/11/09 01:31:10;;;;;;;7.32;2.60;;;13.20;99.90;;;;;;5125689;27;20038;-76
2022/11/09 01:33:36;;;;;;;9.32;2.90;;;13.20;99.90;;;;;;5117471;27;20085;-76
2022/11/09 01:36:04;;;;;;;8.13;2.83;;;13.00;99.90;;;;;;5118570;27;20066;-76
2022/11/09 01:38:30;;;;;;;6.32;2.80;;;13.10;99.90;;;;;;5123940;27;20054;-78
2022/11/09 01:40:56;;;;;;;6.22;2.42;;;13.10;99.90;;;;;;5114332;27;20500;-77
2022/11/09 01:43:23;;;;;;;7.55;3.00;;;13.10;99.90;;;;;;5126542;27;20445;-77
2022/11/09 01:45:55;;;;;;;7.07;2.92;;;13.10;99.90;;;;;;5109127;27;20043;-77
2022/11/09 01:48:47;;;;;;;10.18;3.40;;;13.10;99.90;;;;;;5123462;27;20031;-77
2022/11/09 01:51:42;;;;;;;9.25;2.65;;;13.10;99.90;;;;;;5114374;27;20047;-77
2022/11/09 01:54:19;;;;;;;7.03;2.80;;;13.10;99.90;;;;;;5126311;27;20064;-77
2022/11/09 01:56:46;;;;;;;8.38;2.95;;;13.00;99.90;;;;;;5127960;27;20043;-77
2022/11/09 01:59:16;;;;;;;7.18;2.63;;;13.00;99.90;;;;;;5128248;27;20059;-77
2022/11/09 02:01:42;;;;;;;9.15;2.83;;;13.10;99.90;;;;;;5129949;27;20051;-77
2022/11/09 02:04:44;;;;;;;7.22;2.63;;;13.00;99.90;;;;;;5124369;27;20072;-77
2022/11/09 02:07:09;;;;;;;8.10;2.97;;;13.00;99.90;;;;;;5089050;27;20047;-77
2022/11/09 02:09:48;;;;;;;7.55;2.80;;;13.00;99.90;;;;;;5122974;27;20073;-77
2022/11/09 02:12:16;;;;;;;8.27;2.95;;;13.00;99.90;;;;;;5123231;27;20053;-77
2022/11/09 02:14:43;;;;;;;7.45;3.08;;;13.00;99.90;;;;;;5127963;27;20043;-77
2022/11/09 02:17:10;;;;;;;10.45;3.03;;;12.90;99.90;;;;;;5118346;27;20038;-77
2022/11/09 02:19:36;;;;;;;7.00;2.72;;;13.00;99.90;;;;;;5121211;27;20114;-77
2022/11/09 02:22:02;;;;;;;7.70;3.17;;;12.90;99.90;;;;;;5110702;27;20504;-77
2022/11/09 02:24:28;;;;;;;8.95;3.10;;;12.90;99.90;;;;;;5117476;27;20043;-77
2022/11/09 02:26:54;;;;;;;8.38;3.00;;;12.90;99.90;;;;;;5130563;27;20078;-77
2022/11/09 02:29:37;;;;;;;9.48;3.08;;;12.90;99.90;;;;;;5124038;27;20066;-77
2022/11/09 02:32:08;;;;;;;8.95;3.28;;;12.90;99.90;;;;;;5127791;27;20039;-77
2022/11/09 02:34:34;;;;;;;8.45;2.80;;;12.90;99.90;;;;;;5119785;27;20325;-77
2022/11/09 02:37:00;;;;;;;10.30;3.20;;;12.80;99.90;;;;;;5130948;27;20035;-77
2022/11/09 02:39:27;;;;;;;8.38;2.85;;;12.80;99.90;;;;;;5128924;27;20043;-77
2022/11/09 02:41:56;;;;;;;8.57;3.03;;;12.80;99.90;;;;;;5134541;27;20039;-77
2022/11/09 02:44:23;;;;;;;8.23;3.05;;;12.80;99.90;;;;;;5121851;27;20369;-77
2022/11/09 02:46:49;;;;;;;10.30;2.70;;;12.80;99.90;;;;;;5121953;27;20154;-77
2022/11/09 02:49:14;;;;;;;10.48;2.70;;;12.80;99.90;;;;;;5125543;27;20118;-77
2022/11/09 02:51:46;;;;;;;7.63;2.65;;;12.70;99.90;;;;;;5124357;27;20400;-77
2022/11/09 02:54:12;;;;;;;7.35;2.90;;;12.70;99.90;;;;;;5129849;27;20034;-77
2022/11/09 02:56:38;;;;;;;13.00;3.15;;;12.80;99.90;;;;;;5123236;27;20054;-77
2022/11/09 02:59:04;;;;;;;12.40;3.53;;;12.80;99.90;;;;;;5125162;27;20050;-77
2022/11/09 03:01:32;;;;;;;11.70;2.70;;;12.80;99.90;;;;;;5112877;27;20046;-77
2022/11/09 03:03:58;;;;;;;7.68;2.90;;;12.70;99.90;;;;;;5099771;28;20043;-78
2022/11/09 03:06:33;;;;;;;10.27;2.80;;;12.70;99.90;;;;;;5109507;27;20080;-77
2022/11/09 03:09:08;;;;;;;6.80;2.90;;;12.70;99.90;;;;;;5110902;27;20035;-77
2022/11/09 03:11:34;;;;;;;7.25;2.40;;;12.70;99.90;;;;;;5119005;27;20329;-77
2022/11/09 03:14:01;;;;;;;9.40;3.00;;;12.60;99.90;;;;;;5147129;27;20110;-77
2022/11/09 03:16:27;;;;;;;7.10;2.33;;;12.70;99.90;;;;;;5121562;27;20366;-77
2022/11/09 03:18:53;;;;;;;12.48;2.70;;;12.60;99.90;;;;;;5111047;27;20035;-77
2022/11/09 03:21:20;;;;;;;8.02;2.60;;;12.60;99.90;;;;;;5121598;27;20050;-77
2022/11/09 03:23:53;;;;;;;10.27;2.83;;;12.60;99.90;;;;;;5096224;27;20051;-77
2022/11/09 03:26:20;;;;;;;10.38;2.80;;;12.60;99.90;;;;;;5151174;27;20700;-77
2022/11/09 03:28:45;;;;;;;9.82;2.70;;;12.50;99.90;;;;;;5095550;27;20580;-76
2022/11/09 03:31:12;;;;;;;10.00;2.88;;;12.50;99.90;;;;;;5124857;27;20043;-76
2022/11/09 03:33:38;;;;;;;8.70;2.83;;;12.50;99.90;;;;;;5116373;27;20413;-77
2022/11/09 03:36:04;;;;;;;8.65;2.55;;;12.50;99.90;;;;;;5115009;27;20043;-76
2022/11/09 03:38:30;;;;;;;11.73;2.35;;;12.50;99.90;;;;;;5112848;27;20076;-77
2022/11/09 03:40:59;;;;;;;9.27;2.40;;;12.50;99.90;;;;;;5111540;27;20075;-76
2022/11/09 03:43:25;;;;;;;10.53;2.57;;;12.40;99.90;;;;;;5101145;27;20072;-77
2022/11/09 03:45:50;;;;;;;10.65;2.95;;;12.40;99.90;;;;;;5109762;27;20047;-76
2022/11/09 03:48:16;;;;;;;11.95;2.60;;;12.30;99.90;;;;;;5098215;27;20035;-76
2022/11/09 03:50:42;;;;;;;11.38;2.80;;;12.40;99.90;;;;;;5112444;27;20067;-76
2022/11/09 03:53:09;;;;;;;8.63;2.90;;;12.40;99.90;;;;;;5127339;27;20450;-77
2022/11/09 03:55:36;;;;;;;9.52;3.30;;;12.30;99.90;;;;;;5120350;27;20050;-76
2022/11/09 03:58:02;;;;;;;10.70;2.85;;;12.30;99.90;;;;;;5115647;27;20047;-76
2022/11/09 04:00:31;;;;;;;10.07;2.75;;;12.30;99.90;;;;;;5121587;27;20097;-76
2022/11/09 04:02:57;;;;;;;8.80;2.55;;;12.40;99.90;;;;;;5111358;27;20073;-76
2022/11/09 04:05:23;;;;;;;9.57;2.92;;;12.40;99.90;;;;;;5116090;27;20047;-76
2022/11/09 04:07:51;;;;;;;9.30;2.58;;;12.40;99.90;;;;;;5121480;27;20667;-76
2022/11/09 04:10:18;;;;;;;9.70;3.08;;;12.40;99.90;;;;;;5122858;27;20051;-76
2022/11/09 04:12:44;;;;;;;11.57;2.95;;;12.40;99.90;;;;;;5129772;27;20086;-77
2022/11/09 04:15:11;;;;;;;8.70;2.58;;;12.40;99.90;;;;;;5120497;27;20035;-76
2022/11/09 04:17:37;;;;;;;12.48;3.47;;;12.40;99.90;;;;;;5121778;27;20045;-76
2022/11/09 04:20:07;;;;;;;6.95;2.50;;;12.40;99.90;;;;;;5122742;27;20043;-76
2022/11/09 04:22:33;;;;;;;12.23;3.08;;;12.40;99.90;;;;;;5112633;27;20063;-75
2022/11/09 04:24:59;;;;;;;8.57;2.65;;;12.40;99.90;;;;;;5121718;27;20084;-76
2022/11/09 04:27:25;;;;;;;6.93;2.22;;;12.40;99.90;;;;;;5127958;27;20412;-76
2022/11/09 04:29:50;;;;;;;8.35;2.40;;;12.30;99.90;;;;;;5122290;27;20047;-76
2022/11/09 04:32:17;;;;;;;9.65;2.88;;;12.40;99.90;;;;;;5120026;27;20085;-72
2022/11/09 04:34:43;;;;;;;8.63;2.75;;;12.40;99.90;;;;;;5119090;27;20070;-76
2022/11/09 04:37:09;;;;;;;9.65;2.95;;;12.40;99.90;;;;;;5117077;27;20094;-76
2022/11/09 04:39:35;;;;;;;10.40;3.15;;;12.30;99.90;;;;;;5121592;27;20237;-76
2022/11/09 04:42:01;;;;;;;8.02;2.80;;;12.30;99.90;;;;;;5120984;27;20863;-76
2022/11/09 04:44:30;;;;;;;7.97;2.65;;;12.30;99.90;;;;;;5113368;27;20039;-76
2022/11/09 04:46:56;;;;;;;9.15;2.88;;;12.30;99.90;;;;;;5115450;27;20044;-76
2022/11/09 04:49:21;;;;;;;10.23;2.72;;;12.30;99.90;;;;;;5128295;27;20046;-76
2022/11/09 04:51:47;;;;;;;9.88;3.03;;;12.30;99.90;;;;;;5119852;27;20046;-77
2022/11/09 04:54:13;;;;;;;8.27;2.70;;;12.30;99.90;;;;;;5117414;27;20039;-77
2022/11/09 04:56:39;;;;;;;8.82;2.50;;;12.30;99.90;;;;;;5112078;27;20054;-76
2022/11/09 04:59:05;;;;;;;12.02;3.42;;;12.30;99.90;;;;;;5111340;27;20438;-76
2022/11/09 05:01:31;;;;;;;9.30;2.60;;;12.30;99.90;;;;;;5115689;27;20095;-76
2022/11/09 05:03:56;;;;;;;10.00;2.65;;;12.30;99.90;;;;;;5128200;27;20540;-77
2022/11/09 05:06:31;;;;;;;6.47;2.50;;;12.40;99.90;;;;;;5123550;27;20525;-76
2022/11/09 05:09:03;;;;;;;9.35;2.63;;;12.40;99.90;;;;;;5122942;27;20051;-77
2022/11/09 05:11:30;;;;;;;7.78;2.85;;;12.50;99.90;;;;;;5123005;27;20044;-76
2022/11/09 05:13:56;;;;;;;9.30;3.38;;;12.50;99.90;;;;;;5120517;27;20043;-77
2022/11/09 05:16:22;;;;;;;7.45;2.75;;;12.60;99.90;;;;;;5111267;27;20046;-77
2022/11/09 05:18:48;;;;;;;7.57;2.88;;;12.60;99.90;;;;;;5116080;27;20475;-77
2022/11/09 05:21:14;;;;;;;7.45;2.35;;;12.60;99.90;;;;;;5122716;27;20042;-76
2022/11/09 05:23:58;;;;;;;8.50;2.30;;;12.60;99.90;;;;;;5119951;27;20126;-77
2022/11/09 05:26:35;;;;;;;10.18;2.78;;;12.60;99.90;;;;;;5115493;27;20113;-77
2022/11/09 05:29:03;;;;;;;10.23;2.92;;;12.60;99.90;;;;;;5113069;27;20536;-77
2022/11/09 05:31:30;;;;;;;8.85;2.88;;;12.60;99.90;;;;;;5124919;27;20127;-77
2022/11/09 05:33:56;;;;;;;5.43;2.28;;;12.60;99.90;;;;;;5119644;27;20047;-76
2022/11/09 05:36:22;;;;;;;9.98;2.85;;;12.60;99.90;;;;;;5115665;27;20092;-77
2022/11/09 05:38:48;;;;;;;7.47;2.50;;;12.60;99.90;;;;;;5117562;27;20035;-77
2022/11/09 05:41:15;;;;;;;7.20;2.40;;;12.60;99.90;;;;;;5116719;27;20035;-77
2022/11/09 05:43:44;;;;;;;9.52;2.60;;;12.50;99.90;;;;;;5125244;27;20054;-77
2022/11/09 05:46:12;;;;;;;9.13;2.20;;;12.50;99.90;;;;;;5128773;27;20039;-77
2022/11/09 05:48:38;;;;;;;11.07;2.92;;;12.50;99.90;;;;;;5120141;27;20051;-77
2022/11/09 05:51:05;;;;;;;12.35;3.20;;;12.40;99.90;;;;;;5121413;27;20458;-77
2022/11/09 05:53:31;;;;;;;8.95;3.03;;;12.40;99.90;;;;;;5122775;27;20062;-77
2022/11/09 05:56:05;;;;;;;7.90;2.15;;;12.40;99.90;;;;;;5120381;27;20645;-77
2022/11/09 05:58:35;;;;;;;10.05;2.55;;;12.30;99.90;;;;;;5113611;27;20039;-77
2022/11/09 06:01:02;;;;;;;10.50;2.67;;;12.30;99.90;;;;;;5114834;27;20052;-77
2022/11/09 06:03:31;;;;;;;9.25;2.30;;;12.30;99.90;;;;;;5120274;27;20238;-77
2022/11/09 06:06:01;;;;;;;9.90;2.60;;;12.20;99.90;;;;;;5151440;27;20452;-76
2022/11/09 06:08:27;;;;;;;10.98;2.97;;;12.20;99.90;;;;;;5110626;27;20099;-76
2022/11/09 06:10:58;;;;;;;12.13;3.13;;;12.20;99.90;;;;;;5119223;27;20031;-77
2022/11/09 06:13:24;;;;;;;8.98;2.50;;;12.20;99.90;;;;;;5107936;27;20046;-77
2022/11/09 06:15:58;;;;;;;10.52;2.80;;;12.20;99.90;;;;;;5129913;27;20049;-79
2022/11/09 06:18:26;;;;;;;6.88;2.20;;;12.20;99.90;;;;;;5127849;27;20042;-77
2022/11/09 06:21:00;;;;;;;9.65;2.70;;;12.20;99.90;;;;;;5129595;27;20510;-77
2022/11/09 06:23:28;;;;;;;9.40;3.28;;;12.10;99.90;;;;;;5123507;27;20034;-77
2022/11/09 06:25:57;;;;;;;;;;;12.10;99.90;;;;;;5123410;27;20042;-77
2022/11/09 06:28:23;;;;;;;9.20;2.58;;;12.10;99.90;;;;;;5119404;27;19944;-76
2022/11/09 06:30:48;;;;;;;9.25;3.22;;;12.10;99.90;;;;;;5115555;27;20262;-76
2022/11/09 06:33:14;;;;;;;10.00;3.03;;;12.00;99.90;;;;;;5121005;27;20587;-76
2022/11/09 06:35:40;;;;;;;9.27;2.88;;;12.00;99.90;;;;;;5110668;27;21730;-78
2022/11/09 06:38:06;;;;;;;10.75;2.83;;;12.00;99.90;;;;;;5109301;27;20043;-79
2022/11/09 06:40:32;;;;;;;7.63;2.70;;;12.00;99.90;;;;;;5103065;27;20065;-80
2022/11/09 06:42:59;;;;;;;9.07;3.00;;;12.00;99.90;;;;;;5103618;27;20054;-80
2022/11/09 06:45:26;;;;;;;9.35;2.50;;;12.00;99.90;;;;;;5116830;27;20158;-80
2022/11/09 06:48:01;;;;;;;9.60;2.63;;;12.00;99.90;;;;;;5114555;27;20042;-80
2022/11/09 06:50:29;;;;;;;9.55;2.75;;;12.00;99.90;;;;;;5150554;27;20039;-79
2022/11/09 06:52:56;;;;;;;10.05;2.38;;;12.00;99.90;;;;;;5119620;27;20168;-79
2022/11/09 06:55:22;;;;;;;9.10;2.47;;;12.00;99.90;;;;;;5113081;27;20062;-80
2022/11/09 06:57:48;;;;;;;10.35;2.70;;;12.00;99.90;;;;;;5117953;27;20405;-79
2022/11/09 07:00:14;;;;;;;11.27;2.40;;;12.00;99.90;;;;;;5120504;27;20690;-80
2022/11/09 07:02:41;;;;;;;8.85;2.53;;;12.00;99.90;;;;;;5124151;27;20043;-80
2022/11/09 07:05:07;;;;;;;10.27;2.40;;;11.90;99.90;;;;;;5142373;27;20039;-81
2022/11/09 07:07:33;;;;;;;6.70;2.55;;;11.90;99.90;;;;;;5144692;27;20492;-81
2022/11/09 07:09:59;;;;;;;10.30;2.67;;;11.90;99.90;;;;;;5117883;27;20845;-81
2022/11/09 07:12:25;;;;;;;10.07;2.67;;;11.90;99.90;;;;;;5121971;27;20051;-75
2022/11/09 07:14:51;;;;;;;7.93;2.05;;;11.90;99.90;;;;;;5121871;27;20055;-75
2022/11/09 07:17:16;;;;;;;9.73;2.35;;;11.90;99.90;;;;;;5121917;27;20038;-80
2022/11/09 07:19:42;;;;;;;12.52;2.65;;;11.90;99.90;;;;;;5122634;27;20122;-82
2022/11/09 07:22:08;;;;;;;13.07;2.75;;;11.90;99.90;;;;;;5096015;27;20108;-79
2022/11/09 07:24:34;;;;;;;9.27;2.90;;;12.00;99.90;;;;;;5071088;27;20039;-81
2022/11/09 07:27:00;;;;;;;9.38;2.40;;;11.90;99.90;;;;;;5123158;27;20106;-81
2022/11/09 07:29:25;;;;;;;10.25;2.38;;;11.90;99.90;;;;;;5106678;27;20050;-80
2022/11/09 07:31:51;;;;;;;8.98;2.45;;;11.90;99.90;;;;;;5113025;27;20481;-81
2022/11/09 07:34:17;;;;;;;10.18;2.42;;;12.00;99.90;;;;;;5115076;27;20039;-84
2022/11/09 07:36:43;;;;;;;10.23;2.60;;;11.90;99.90;;;;;;5120056;27;20505;-84
2022/11/09 07:39:08;;;;;;;11.50;3.05;;;11.90;99.90;;;;;;5125424;27;20059;-83
2022/11/09 07:41:34;;;;;;;10.68;3.08;;;11.90;99.90;;;;;;5102940;27;20043;-83
2022/11/09 07:44:00;;;;;;;14.50;3.13;;;11.90;99.90;;;;;;5073164;27;20125;-83
2022/11/09 07:46:26;;;;;;;11.82;2.80;;;11.90;99.90;;;;;;5122833;27;20096;-83
2022/11/09 07:48:52;;;;;;;11.25;2.97;;;11.90;99.90;;;;;;5103262;27;20043;-83
2022/11/09 07:51:17;;;;;;;11.27;3.35;;;11.90;99.90;;;;;;5119261;27;20045;-84
2022/11/09 07:53:43;;;;;;;10.02;2.95;;;11.90;99.90;;;;;;5122073;27;20038;-83
2022/11/09 07:56:09;;;;;;;9.43;2.70;;;11.90;99.90;;;;;;5106977;27;20062;-83
2022/11/09 07:58:38;;;;;;;10.23;3.20;;;11.90;99.90;;;;;;5120089;27;20047;-83
2022/11/09 08:01:09;;;;;;;11.70;3.30;;;11.90;99.90;;;;;;5120202;27;20704;-83
2022/11/09 08:03:38;;;;;;;10.98;3.53;;;11.90;99.90;;;;;;5126741;27;20078;-83
2022/11/09 08:06:03;;;;;;;12.52;3.05;;;11.90;99.90;;;;;;5105731;27;20155;-83
2022/11/09 08:08:29;;;;;;;13.57;2.78;;;11.90;99.90;;;;;;5136999;27;20059;-82
2022/11/09 08:10:56;;;;;;;10.18;2.90;;;11.90;99.90;;;;;;5123970;27;20040;-84
2022/11/09 08:13:22;;;;;;;15.32;3.83;;;11.90;99.90;;;;;;5131002;27;20131;-83
2022/11/09 08:15:48;;;;;;;9.93;3.15;;;12.00;99.90;;;;;;5104535;27;20040;-83
2022/11/09 08:18:16;;;;;;;11.98;3.28;;;12.00;99.90;;;;;;5094201;27;20049;-84
2022/11/09 08:20:42;;;;;;;14.77;3.70;;;12.10;99.90;;;;;;5118836;27;20035;-83
2022/11/09 08:23:13;;;;;;;10.82;3.25;;;12.00;99.90;;;;;;5106019;27;20143;-84
2022/11/09 08:25:39;;;;;;;11.02;2.92;;;12.10;99.90;;;;;;5131315;27;20560;-84
2022/11/09 08:28:05;;;;;;;11.45;3.10;;;12.10;99.90;;;;;;5118554;27;20043;-84
2022/11/09 08:30:32;;;;;;;8.50;2.80;;;12.20;99.90;;;;;;5111159;27;20067;-85
2022/11/09 08:32:59;;;;;;;14.43;3.83;;;12.20;99.90;;;;;;5130093;27;20039;-84
2022/11/09 08:35:26;;;;;;;8.98;3.10;;;12.30;99.90;;;;;;5130453;27;20045;-84
2022/11/09 08:37:52;;;;;;;12.10;3.58;;;12.20;99.90;;;;;;5112931;27;20131;-75
2022/11/09 08:40:20;;;;;;;12.90;3.40;;;12.20;99.90;;;;;;5097593;27;20035;-83
2022/11/09 08:42:47;;;;;;;13.85;3.30;;;12.20;99.90;;;;;;5133096;27;20073;-84
2022/11/09 08:45:13;;;;;;;11.35;3.50;;;12.30;99.90;;;;;;5103622;27;20034;-83
2022/11/09 08:47:43;;;;;;;14.07;3.45;;;12.30;99.90;;;;;;5131167;27;20085;-84
2022/11/09 08:50:10;;;;;;;9.97;3.50;;;12.40;99.90;;;;;;5129314;27;20046;-84
2022/11/09 08:52:36;;;;;;;13.57;3.65;;;12.40;99.90;;;;;;5115136;27;20733;-84
2022/11/09 08:55:03;;;;;;;10.57;3.05;;;12.50;99.90;;;;;;5125670;27;20071;-82
2022/11/09 08:57:30;;;;;;;12.80;3.28;;;12.50;99.90;;;;;;5142000;27;20451;-85
2022/11/09 08:59:55;;;;;;;11.93;2.80;;;12.50;99.90;;;;;;5123809;27;20040;-83
2022/11/09 09:02:21;;;;;;;10.77;3.40;;;12.60;99.90;;;;;;5135001;27;20038;-84
2022/11/09 09:04:47;;;;;;;11.95;2.88;;;12.60;99.90;;;;;;5131858;27;20039;-83
2022/11/09 09:07:13;;;;;;;11.43;3.65;;;12.60;99.90;;;;;;5125119;27;20075;-84
2022/11/09 09:09:43;;;;;;;14.32;4.10;;;12.70;99.90;;;;;;5122809;27;20039;-83
2022/11/09 09:12:12;;;;;;;9.40;3.97;;;12.70;99.90;;;;;;5125195;27;20551;-84
2022/11/09 09:14:40;;;;;;;11.75;3.80;;;12.70;99.90;;;;;;5125521;27;20047;-83
2022/11/09 09:17:06;;;;;;;14.30;3.50;;;12.80;99.90;;;;;;5124708;27;20043;-84
2022/11/09 09:19:32;;;;;;;9.25;3.25;;;12.80;99.90;;;;;;5128033;27;20046;-84
2022/11/09 09:22:01;;;;;;;10.73;3.70;;;12.80;99.90;;;;;;5124717;27;20118;-83
2022/11/09 09:24:27;;;;;;;10.35;2.97;;;12.90;99.90;;;;;;5120371;27;20084;-83
2022/11/09 09:26:53;;;;;;;11.82;4.03;;;12.90;99.90;;;;;;5121291;27;20493;-83
2022/11/09 09:29:19;;;;;;;10.70;3.42;;;12.90;99.90;;;;;;5127633;27;20035;-83
2022/11/09 09:31:44;;;;;;;12.52;4.32;;;13.00;99.90;;;;;;5110897;27;20350;-84
2022/11/09 09:34:11;;;;;;;13.77;4.20;;;13.00;99.90;;;;;;5105682;27;20071;-84
2022/11/09 09:36:37;;;;;;;12.80;3.60;;;13.10;99.90;;;;;;5128829;27;20397;-82
2022/11/09 09:39:03;;;;;;;13.75;3.70;;;13.20;99.90;;;;;;5128738;27;20126;-82
2022/11/09 09:41:40;;;;;;;12.68;4.20;;;13.20;99.90;;;;;;5126540;27;20141;-84
2022/11/09 09:44:44;;;;;;;13.10;4.45;;;13.20;99.90;;;;;;5123434;27;20446;-83
2022/11/09 09:47:32;;;;;;;10.93;3.53;;;13.20;99.90;;;;;;5125071;27;20401;-82
2022/11/09 09:50:11;;;;;;;13.70;3.67;;;13.20;99.90;;;;;;5131469;27;20525;-83
2022/11/09 09:52:40;;;;;;;12.45;3.78;;;13.30;99.90;;;;;;5129985;27;20043;-84
2022/11/09 09:55:36;;;;;;;11.63;4.35;;;13.30;99.90;;;;;;5121684;27;20035;-83
2022/11/09 09:58:11;;;;;;;13.23;4.30;;;13.30;99.90;;;;;;5121688;27;20092;-83
2022/11/09 10:00:38;;;;;;;11.73;4.47;;;13.30;99.90;;;;;;5125083;27;20047;-84
2022/11/09 10:03:05;;;;;;;10.40;3.95;;;13.30;99.90;;;;;;5088378;27;20078;-84
2022/11/09 10:05:57;;;;;;;14.88;3.88;;;13.40;99.90;;;;;;5118988;27;20107;-85
2022/11/09 10:08:44;;;;;;;10.63;3.50;;;13.50;99.90;;;;;;5088293;27;20043;-84
2022/11/09 10:11:27;;;;;;;13.38;4.18;;;13.50;99.90;;;;;;5127978;27;20043;-83
2022/11/09 10:14:22;;;;;;;14.45;3.80;;;13.60;99.90;;;;;;5121454;27;20045;-82
2022/11/09 10:17:16;;;;;;;14.02;4.18;;;13.50;99.90;;;;;;5091854;27;20056;-83
2022/11/09 10:19:48;;;;;;;12.23;4.25;;;13.60;99.90;;;;;;5118994;27;20047;-84
2022/11/09 10:22:31;;;;;;;11.77;3.53;;;13.50;99.90;;;;;;5121186;27;20137;-83
2022/11/09 10:25:08;;;;;;;12.73;4.13;;;13.60;99.90;;;;;;5119269;27;20493;-84
2022/11/09 10:27:41;;;;;;;12.75;3.88;;;13.60;99.90;;;;;;5122100;27;20098;-83
2022/11/09 10:30:14;;;;;;;15.30;4.28;;;13.60;99.90;;;;;;5119888;27;20047;-85
2022/11/09 10:32:41;;;;;;;12.10;4.25;;;13.60;99.90;;;;;;5127446;27;20039;-83
2022/11/09 10:35:18;;;;;;;13.88;4.22;;;13.70;99.90;;;;;;5121142;27;20039;-85
2022/11/09 10:37:47;;;;;;;13.70;4.25;;;13.80;99.90;;;;;;5125895;27;20054;-83
2022/11/09 10:40:34;;;;;;;16.60;4.32;;;13.80;99.90;;;;;;5123856;27;20095;-83
2022/11/09 10:43:05;;;;;;;13.27;4.13;;;13.80;99.90;;;;;;5116615;27;20043;-82
2022/11/09 10:45:34;;;;;;;10.07;3.67;;;13.80;99.90;;;;;;5105880;27;20061;-84
2022/11/09 10:48:01;;;;;;;13.40;3.35;;;13.80;99.90;;;;;;5120850;27;20563;-84
2022/11/09 10:50:36;;;;;;;16.92;4.82;;;13.70;99.90;;;;;;5122865;27;20070;-83
2022/11/09 10:53:13;;;;;;;12.75;3.50;;;13.80;99.90;;;;;;5117377;27;20692;-83
2022/11/09 10:55:49;;;;;;;13.88;4.18;;;13.80;99.90;;;;;;5118077;27;20069;-85
2022/11/09 10:58:32;;;;;;;12.85;4.35;;;13.80;99.90;;;;;;5101023;27;20042;-84
2022/11/09 11:01:03;;;;;;;11.88;3.97;;;13.80;99.90;;;;;;5116191;27;20042;-83
2022/11/09 11:03:34;;;;;;;10.88;3.80;;;13.80;99.90;;;;;;5128741;27;20040;-85
2022/11/09 11:06:16;;;;;;;13.02;4.35;;;13.80;99.90;;;;;;5123836;27;20066;-84
2022/11/09 11:08:50;;;;;;;11.93;4.07;;;13.90;99.90;;;;;;5120822;27;20103;-85
2022/11/09 11:11:29;;;;;;;15.05;4.28;;;13.90;99.90;;;;;;5118298;27;20043;-83
2022/11/09 11:14:13;;;;;;;13.20;3.90;;;14.00;99.90;;;;;;5122161;27;20038;-83
2022/11/09 11:16:42;;;;;;;12.88;4.00;;;14.00;99.90;;;;;;5104838;27;21149;-83
2022/11/09 11:19:37;;;;;;;12.88;4.18;;;14.00;99.90;;;;;;5126814;27;20055;-85
2022/11/09 11:22:17;;;;;;;14.27;3.72;;;14.10;99.90;;;;;;5122035;27;20042;-83
2022/11/09 11:24:49;;;;;;;;;;;14.10;99.90;;;;;;5116797;27;20114;-84
2022/11/09 11:27:35;;;;;;;12.95;4.43;;;14.00;99.90;;;;;;5123832;27;21217;-84
2022/11/09 11:30:15;;;;;;;10.60;3.80;;;14.10;99.90;;;;;;5126401;27;20039;-84
2022/11/09 11:32:41;;;;;;;11.57;3.42;;;14.10;99.90;;;;;;5121275;27;20050;-83
2022/11/09 11:35:21;;;;;;;8.98;3.30;;;14.10;99.90;;;;;;5124166;27;20031;-83
2022/11/09 11:38:04;;;;;;;10.50;3.08;;;14.10;99.90;;;;;;5120669;27;20083;-84
2022/11/09 11:40:49;;;;;;;14.82;3.60;;;14.00;99.90;;;;;;5111422;27;20058;-83
2022/11/09 11:43:36;;;;;;;12.30;3.63;;;13.90;99.90;;;;;;5124989;27;20363;-84
2022/11/09 11:46:12;;;;;;;10.68;3.05;;;13.90;99.90;;;;;;5127586;27;20031;-84
2022/11/09 11:49:12;;;;;;;13.05;3.13;;;13.90;99.90;;;;;;5119963;27;20439;-84
2022/11/09 11:52:02;;;;;;;10.38;3.05;;;13.80;99.90;;;;;;5121784;27;20031;-84
2022/11/09 11:54:54;;;;;;;;;;;13.80;99.90;;;;;;5125142;27;20050;-83
2022/11/09 11:57:23;;;;;;;13.13;3.47;;;13.80;99.90;;;;;;5134791;27;19920;-83
2022/11/09 12:00:03;;;;;;;10.48;2.88;;;13.80;99.90;;;;;;5123561;27;20202;-84
2022/11/09 12:02:54;;;;;;;11.60;3.20;;;13.80;99.90;;;;;;5118785;27;20039;-83
2022/11/09 12:05:56;;;;;;;11.98;3.13;;;13.80;99.90;;;;;;5126642;27;20145;-83
2022/11/09 12:08:43;;;;;;;9.43;2.90;;;13.80;99.90;;;;;;5103891;27;20591;-83
2022/11/09 12:11:34;;;;;;;9.68;3.17;;;13.90;99.90;;;;;;5121389;27;20199;-84
2022/11/09 12:14:22;;;;;;;14.27;2.88;;;13.90;99.90;;;;;;5120376;27;20046;-84
2022/11/09 12:17:10;;;;;;;11.40;3.10;;;13.90;99.90;;;;;;5101000;27;20047;-84
2022/11/09 12:19:59;;;;;;;9.32;3.08;;;13.80;99.90;;;;;;5124422;27;20091;-83
2022/11/09 12:22:53;;;;;;;8.15;2.42;;;13.80;99.90;;;;;;5125226;27;20039;-84
2022/11/09 12:25:30;;;;;;;10.27;2.75;;;13.80;99.90;;;;;;5122194;27;20035;-83
2022/11/09 12:28:28;;;;;;;11.93;2.85;;;13.80;99.90;;;;;;5125558;27;20548;-83
2022/11/09 12:31:35;;;;;;;11.43;2.58;;;13.90;99.90;;;;;;5122528;27;20094;-83
2022/11/09 12:34:11;;;;;;;11.57;2.80;;;13.90;99.90;;;;;;5121006;27;20065;-83
2022/11/09 12:36:59;;;;;;;12.35;3.25;;;13.90;99.90;;;;;;5127926;27;20051;-83
2022/11/09 12:39:38;;;;;;;8.93;2.42;;;13.90;99.90;;;;;;5122578;27;20171;-83
2022/11/09 12:42:26;;;;;;;10.75;2.72;;;14.00;99.90;;;;;;5122769;27;20706;-84
2022/11/09 12:45:02;;;;;;;11.60;2.50;;;14.00;99.90;;;;;;5127896;27;20230;-81
2022/11/09 12:47:38;;;;;;;9.60;2.85;;;13.90;99.90;;;;;;5120276;27;20043;-84
2022/11/09 12:50:05;;;;;;;7.05;2.58;;;13.90;99.90;;;;;;5120111;27;20378;-85
2022/11/09 12:52:33;;;;;;;11.63;3.03;;;13.90;99.90;;;;;;5122616;27;20080;-84
2022/11/09 12:55:02;;;;;;;14.18;3.30;;;13.80;99.90;;;;;;5120720;27;20520;-85
2022/11/09 12:57:29;;;;;;;8.43;2.75;;;13.80;99.90;;;;;;5119731;27;20171;-85
2022/11/09 12:59:57;;;;;;;9.85;3.00;;;13.70;99.90;;;;;;5122694;27;20394;-84